sensor_id;sensor_type;location;lat;lon;timestamp;P1;durP1;ratioP1;P2;durP2;ratioP2
74471;SDS011;62920;53.572;10.050;2023-06-26T00:01:13;10.70;;;8.75;;
74471;SDS011;62920;53.572;10.050;2023-06-26T00:03:39;11.27;;;9.25;;
74471;SDS011;62920;53.572;10.050;2023-06-26T00:06:04;10.98;;;8.68;;
74471;SDS011;62920;53.572;10.050;2023-06-26T00:08:29;9.77;;;8.60;;
74471;SDS011;62920;53.572;10.050;2023-06-26T00:10:55;11.80;;;9.27;;
74471;SDS011;62920;53.572;10.050;2023-06-26T00:13:20;11.43;;;8.48;;
74471;SDS011;62920;53.572;10.050;2023-06-26T00:15:46;10.85;;;8.52;;
74471;SDS011;62920;53.572;10.050;2023-06-26T00:18:12;10.40;;;8.63;;
74471;SDS011;62920;53.572;10.050;2023-06-26T00:20:37;10.18;;;8.98;;
74471;SDS011;62920;53.572;10.050;2023-06-26T00:23:02;10.82;;;9.50;;
74471;SDS011;62920;53.572;10.050;2023-06-26T00:25:35;10.25;;;9.15;;
74471;SDS011;62920;53.572;10.050;2023-06-26T00:28:01;14.82;;;8.60;;
74471;SDS011;62920;53.572;10.050;2023-06-26T00:30:26;12.48;;;9.00;;
74471;SDS011;62920;53.572;10.050;2023-06-26T00:32:52;10.77;;;8.73;;
74471;SDS011;62920;53.572;10.050;2023-06-26T00:35:17;10.45;;;8.90;;
74471;SDS011;62920;53.572;10.050;2023-06-26T00:37:42;11.98;;;9.18;;
74471;SDS011;62920;53.572;10.050;2023-06-26T00:40:08;12.02;;;9.32;;
74471;SDS011;62920;53.572;10.050;2023-06-26T00:42:34;11.07;;;8.70;;
74471;SDS011;62920;53.572;10.050;2023-06-26T00:44:59;10.10;;;9.02;;
74471;SDS011;62920;53.572;10.050;2023-06-26T00:47:24;11.27;;;9.05;;
74471;SDS011;62920;53.572;10.050;2023-06-26T00:49:50;10.73;;;8.63;;
74471;SDS011;62920;53.572;10.050;2023-06-26T00:52:16;12.85;;;9.15;;
74471;SDS011;62920;53.572;10.050;2023-06-26T00:54:42;11.43;;;9.48;;
74471;SDS011;62920;53.572;10.050;2023-06-26T00:57:07;11.35;;;9.15;;
74471;SDS011;62920;53.572;10.050;2023-06-26T00:59:34;11.55;;;9.23;;
74471;SDS011;62920;53.572;10.050;2023-06-26T01:04:24;11.63;;;9.13;;
74471;SDS011;62920;53.572;10.050;2023-06-26T01:06:53;10.95;;;8.90;;
74471;SDS011;62920;53.572;10.050;2023-06-26T01:09:19;10.75;;;9.00;;
74471;SDS011;62920;53.572;10.050;2023-06-26T01:11:45;11.43;;;9.00;;
74471;SDS011;62920;53.572;10.050;2023-06-26T01:14:10;11.82;;;9.18;;
74471;SDS011;62920;53.572;10.050;2023-06-26T01:16:36;12.15;;;8.52;;
74471;SDS011;62920;53.572;10.050;2023-06-26T01:19:03;11.35;;;8.88;;
74471;SDS011;62920;53.572;10.050;2023-06-26T01:21:34;13.40;;;9.82;;
74471;SDS011;62920;53.572;10.050;2023-06-26T01:24:16;12.15;;;9.88;;
74471;SDS011;62920;53.572;10.050;2023-06-26T01:26:52;11.85;;;9.40;;
74471;SDS011;62920;53.572;10.050;2023-06-26T01:29:18;11.25;;;9.02;;
74471;SDS011;62920;53.572;10.050;2023-06-26T01:31:44;10.80;;;9.30;;
74471;SDS011;62920;53.572;10.050;2023-06-26T01:34:12;11.23;;;8.85;;
74471;SDS011;62920;53.572;10.050;2023-06-26T01:36:40;10.80;;;9.05;;
74471;SDS011;62920;53.572;10.050;2023-06-26T01:39:06;11.77;;;10.15;;
74471;SDS011;62920;53.572;10.050;2023-06-26T01:41:33;10.18;;;9.05;;
74471;SDS011;62920;53.572;10.050;2023-06-26T01:44:10;12.63;;;9.48;;
74471;SDS011;62920;53.572;10.050;2023-06-26T01:46:42;12.15;;;9.70;;
74471;SDS011;62920;53.572;10.050;2023-06-26T01:57:42;13.00;;;9.05;;
74471;SDS011;62920;53.572;10.050;2023-06-26T02:00:08;14.50;;;8.85;;
74471;SDS011;62920;53.572;10.050;2023-06-26T02:02:36;10.88;;;8.93;;
74471;SDS011;62920;53.572;10.050;2023-06-26T02:05:01;11.32;;;8.90;;
74471;SDS011;62920;53.572;10.050;2023-06-26T02:07:27;10.90;;;8.60;;
74471;SDS011;62920;53.572;10.050;2023-06-26T02:09:52;10.85;;;8.35;;
74471;SDS011;62920;53.572;10.050;2023-06-26T02:12:18;12.23;;;9.20;;
74471;SDS011;62920;53.572;10.050;2023-06-26T02:14:43;10.15;;;8.10;;
74471;SDS011;62920;53.572;10.050;2023-06-26T02:17:08;11.18;;;9.15;;
74471;SDS011;62920;53.572;10.050;2023-06-26T02:19:34;10.38;;;7.82;;
74471;SDS011;62920;53.572;10.050;2023-06-26T02:21:59;11.10;;;8.43;;
74471;SDS011;62920;53.572;10.050;2023-06-26T02:24:25;10.57;;;8.30;;
74471;SDS011;62920;53.572;10.050;2023-06-26T02:26:52;9.75;;;8.23;;
74471;SDS011;62920;53.572;10.050;2023-06-26T02:29:17;12.23;;;9.05;;
74471;SDS011;62920;53.572;10.050;2023-06-26T02:31:43;9.63;;;7.88;;
74471;SDS011;62920;53.572;10.050;2023-06-26T02:34:08;11.70;;;8.70;;
74471;SDS011;62920;53.572;10.050;2023-06-26T02:36:34;10.63;;;8.68;;
74471;SDS011;62920;53.572;10.050;2023-06-26T02:39:00;9.63;;;8.20;;
74471;SDS011;62920;53.572;10.050;2023-06-26T02:41:25;10.45;;;8.02;;
74471;SDS011;62920;53.572;10.050;2023-06-26T02:43:50;10.25;;;8.73;;
74471;SDS011;62920;53.572;10.050;2023-06-26T02:46:16;10.50;;;8.23;;
74471;SDS011;62920;53.572;10.050;2023-06-26T02:48:41;11.35;;;8.45;;
74471;SDS011;62920;53.572;10.050;2023-06-26T02:51:07;11.25;;;8.07;;
74471;SDS011;62920;53.572;10.050;2023-06-26T02:53:33;10.82;;;8.07;;
74471;SDS011;62920;53.572;10.050;2023-06-26T02:55:58;12.45;;;8.70;;
74471;SDS011;62920;53.572;10.050;2023-06-26T02:58:23;9.60;;;8.27;;
74471;SDS011;62920;53.572;10.050;2023-06-26T03:00:49;11.27;;;8.70;;
74471;SDS011;62920;53.572;10.050;2023-06-26T03:03:14;10.98;;;7.97;;
74471;SDS011;62920;53.572;10.050;2023-06-26T03:05:40;9.05;;;7.50;;
74471;SDS011;62920;53.572;10.050;2023-06-26T03:08:05;10.85;;;8.52;;
74471;SDS011;62920;53.572;10.050;2023-06-26T03:10:31;13.02;;;8.13;;
74471;SDS011;62920;53.572;10.050;2023-06-26T03:12:56;9.52;;;7.70;;
74471;SDS011;62920;53.572;10.050;2023-06-26T03:15:21;10.70;;;8.48;;
74471;SDS011;62920;53.572;10.050;2023-06-26T03:17:47;12.55;;;8.38;;
74471;SDS011;62920;53.572;10.050;2023-06-26T03:20:12;11.75;;;8.50;;
74471;SDS011;62920;53.572;10.050;2023-06-26T03:22:38;10.20;;;8.07;;
74471;SDS011;62920;53.572;10.050;2023-06-26T03:25:03;10.65;;;8.35;;
74471;SDS011;62920;53.572;10.050;2023-06-26T03:29:55;10.63;;;8.07;;
74471;SDS011;62920;53.572;10.050;2023-06-26T03:32:20;11.50;;;8.13;;
74471;SDS011;62920;53.572;10.050;2023-06-26T03:34:45;11.25;;;7.97;;
74471;SDS011;62920;53.572;10.050;2023-06-26T03:37:11;10.57;;;7.88;;
74471;SDS011;62920;53.572;10.050;2023-06-26T03:39:36;11.85;;;7.93;;
74471;SDS011;62920;53.572;10.050;2023-06-26T03:42:02;11.38;;;8.07;;
74471;SDS011;62920;53.572;10.050;2023-06-26T03:44:27;11.32;;;7.05;;
74471;SDS011;62920;53.572;10.050;2023-06-26T03:46:53;9.70;;;7.50;;
74471;SDS011;62920;53.572;10.050;2023-06-26T03:49:18;10.85;;;7.63;;
74471;SDS011;62920;53.572;10.050;2023-06-26T03:51:44;10.93;;;7.95;;
74471;SDS011;62920;53.572;10.050;2023-06-26T03:54:09;10.55;;;7.93;;
74471;SDS011;62920;53.572;10.050;2023-06-26T03:56:35;12.25;;;7.88;;
74471;SDS011;62920;53.572;10.050;2023-06-26T03:59:00;10.45;;;7.13;;
74471;SDS011;62920;53.572;10.050;2023-06-26T04:01:26;12.18;;;8.30;;
74471;SDS011;62920;53.572;10.050;2023-06-26T04:03:51;9.35;;;7.82;;
74471;SDS011;62920;53.572;10.050;2023-06-26T04:06:17;9.65;;;7.57;;
74471;SDS011;62920;53.572;10.050;2023-06-26T04:08:42;9.00;;;6.95;;
74471;SDS011;62920;53.572;10.050;2023-06-26T04:11:08;11.10;;;7.53;;
74471;SDS011;62920;53.572;10.050;2023-06-26T04:13:33;12.18;;;8.02;;
74471;SDS011;62920;53.572;10.050;2023-06-26T04:15:58;10.48;;;7.40;;
74471;SDS011;62920;53.572;10.050;2023-06-26T04:18:24;12.32;;;7.70;;
74471;SDS011;62920;53.572;10.050;2023-06-26T04:21:11;10.90;;;7.35;;
74471;SDS011;62920;53.572;10.050;2023-06-26T04:23:38;13.90;;;7.38;;
74471;SDS011;62920;53.572;10.050;2023-06-26T04:26:04;11.10;;;7.55;;
74471;SDS011;62920;53.572;10.050;2023-06-26T04:28:31;10.18;;;7.15;;
74471;SDS011;62920;53.572;10.050;2023-06-26T04:31:00;9.05;;;7.00;;
74471;SDS011;62920;53.572;10.050;2023-06-26T04:33:26;10.38;;;7.28;;
74471;SDS011;62920;53.572;10.050;2023-06-26T04:35:52;10.52;;;8.00;;
74471;SDS011;62920;53.572;10.050;2023-06-26T04:38:18;10.90;;;7.30;;
74471;SDS011;62920;53.572;10.050;2023-06-26T04:43:09;11.13;;;7.47;;
74471;SDS011;62920;53.572;10.050;2023-06-26T04:45:35;8.25;;;6.90;;
74471;SDS011;62920;53.572;10.050;2023-06-26T04:48:00;10.25;;;6.80;;
74471;SDS011;62920;53.572;10.050;2023-06-26T04:50:26;14.55;;;7.07;;
74471;SDS011;62920;53.572;10.050;2023-06-26T04:52:53;11.35;;;6.93;;
74471;SDS011;62920;53.572;10.050;2023-06-26T04:55:19;10.75;;;7.30;;
74471;SDS011;62920;53.572;10.050;2023-06-26T04:57:46;10.60;;;6.38;;
74471;SDS011;62920;53.572;10.050;2023-06-26T05:00:12;9.85;;;7.20;;
74471;SDS011;62920;53.572;10.050;2023-06-26T05:05:03;9.07;;;5.97;;
74471;SDS011;62920;53.572;10.050;2023-06-26T05:07:28;13.05;;;8.02;;
74471;SDS011;62920;53.572;10.050;2023-06-26T05:09:54;9.73;;;7.10;;
74471;SDS011;62920;53.572;10.050;2023-06-26T05:12:20;11.70;;;6.60;;
74471;SDS011;62920;53.572;10.050;2023-06-26T05:14:45;9.63;;;6.70;;
74471;SDS011;62920;53.572;10.050;2023-06-26T05:17:11;14.25;;;6.97;;
74471;SDS011;62920;53.572;10.050;2023-06-26T05:19:38;13.38;;;7.38;;
74471;SDS011;62920;53.572;10.050;2023-06-26T05:22:03;10.90;;;7.25;;
74471;SDS011;62920;53.572;10.050;2023-06-26T05:24:32;11.05;;;6.95;;
74471;SDS011;62920;53.572;10.050;2023-06-26T05:26:58;8.77;;;6.43;;
74471;SDS011;62920;53.572;10.050;2023-06-26T05:29:24;9.77;;;6.97;;
74471;SDS011;62920;53.572;10.050;2023-06-26T05:31:50;11.98;;;6.72;;
74471;SDS011;62920;53.572;10.050;2023-06-26T05:34:17;11.50;;;6.88;;
74471;SDS011;62920;53.572;10.050;2023-06-26T05:36:44;9.00;;;6.72;;
74471;SDS011;62920;53.572;10.050;2023-06-26T05:39:10;15.35;;;6.90;;
74471;SDS011;62920;53.572;10.050;2023-06-26T05:41:36;10.98;;;7.50;;
74471;SDS011;62920;53.572;10.050;2023-06-26T05:44:01;13.50;;;6.45;;
74471;SDS011;62920;53.572;10.050;2023-06-26T05:46:27;7.90;;;5.90;;
74471;SDS011;62920;53.572;10.050;2023-06-26T05:48:52;10.45;;;6.60;;
74471;SDS011;62920;53.572;10.050;2023-06-26T05:51:18;8.57;;;6.75;;
74471;SDS011;62920;53.572;10.050;2023-06-26T05:53:43;13.68;;;6.88;;
74471;SDS011;62920;53.572;10.050;2023-06-26T05:56:09;8.18;;;6.15;;
74471;SDS011;62920;53.572;10.050;2023-06-26T05:58:35;9.07;;;5.68;;
74471;SDS011;62920;53.572;10.050;2023-06-26T06:03:26;11.93;;;6.60;;
74471;SDS011;62920;53.572;10.050;2023-06-26T06:05:51;11.18;;;5.97;;
74471;SDS011;62920;53.572;10.050;2023-06-26T06:08:17;10.60;;;5.95;;
74471;SDS011;62920;53.572;10.050;2023-06-26T06:10:42;7.72;;;5.90;;
74471;SDS011;62920;53.572;10.050;2023-06-26T06:13:07;8.85;;;5.30;;
74471;SDS011;62920;53.572;10.050;2023-06-26T06:15:33;10.45;;;6.35;;
74471;SDS011;62920;53.572;10.050;2023-06-26T06:20:24;9.60;;;6.13;;
74471;SDS011;62920;53.572;10.050;2023-06-26T06:22:49;10.52;;;6.25;;
74471;SDS011;62920;53.572;10.050;2023-06-26T06:25:15;8.98;;;6.00;;
74471;SDS011;62920;53.572;10.050;2023-06-26T06:27:40;7.32;;;5.88;;
74471;SDS011;62920;53.572;10.050;2023-06-26T06:30:06;9.63;;;6.18;;
74471;SDS011;62920;53.572;10.050;2023-06-26T06:32:32;10.65;;;5.97;;
74471;SDS011;62920;53.572;10.050;2023-06-26T06:34:57;10.02;;;5.75;;
74471;SDS011;62920;53.572;10.050;2023-06-26T06:37:23;7.63;;;6.30;;
74471;SDS011;62920;53.572;10.050;2023-06-26T06:39:48;9.60;;;6.18;;
74471;SDS011;62920;53.572;10.050;2023-06-26T06:42:13;9.15;;;6.40;;
74471;SDS011;62920;53.572;10.050;2023-06-26T06:44:39;9.90;;;6.53;;
74471;SDS011;62920;53.572;10.050;2023-06-26T06:47:04;10.00;;;6.50;;
74471;SDS011;62920;53.572;10.050;2023-06-26T06:49:29;9.55;;;5.50;;
74471;SDS011;62920;53.572;10.050;2023-06-26T06:51:55;9.82;;;6.20;;
74471;SDS011;62920;53.572;10.050;2023-06-26T06:54:21;9.93;;;6.35;;
74471;SDS011;62920;53.572;10.050;2023-06-26T06:56:46;9.60;;;6.13;;
74471;SDS011;62920;53.572;10.050;2023-06-26T06:59:11;11.90;;;5.93;;
74471;SDS011;62920;53.572;10.050;2023-06-26T07:01:37;9.30;;;6.00;;
74471;SDS011;62920;53.572;10.050;2023-06-26T07:04:03;7.90;;;6.30;;
74471;SDS011;62920;53.572;10.050;2023-06-26T07:08:54;9.02;;;5.57;;
74471;SDS011;62920;53.572;10.050;2023-06-26T07:11:20;11.20;;;5.80;;
74471;SDS011;62920;53.572;10.050;2023-06-26T07:16:10;11.83;;;5.83;;
74471;SDS011;62920;53.572;10.050;2023-06-26T07:18:37;8.82;;;6.28;;
74471;SDS011;62920;53.572;10.050;2023-06-26T07:21:03;9.75;;;6.20;;
74471;SDS011;62920;53.572;10.050;2023-06-26T07:25:53;8.85;;;6.32;;
74471;SDS011;62920;53.572;10.050;2023-06-26T07:30:44;8.27;;;5.47;;
74471;SDS011;62920;53.572;10.050;2023-06-26T07:35:34;9.47;;;5.90;;
74471;SDS011;62920;53.572;10.050;2023-06-26T07:38:00;7.85;;;5.93;;
74471;SDS011;62920;53.572;10.050;2023-06-26T07:42:51;7.85;;;5.55;;
74471;SDS011;62920;53.572;10.050;2023-06-26T07:45:18;8.60;;;5.93;;
74471;SDS011;62920;53.572;10.050;2023-06-26T07:47:44;7.28;;;5.65;;
74471;SDS011;62920;53.572;10.050;2023-06-26T07:52:36;9.38;;;6.10;;
74471;SDS011;62920;53.572;10.050;2023-06-26T07:57:26;8.27;;;5.80;;
74471;SDS011;62920;53.572;10.050;2023-06-26T07:59:52;15.43;;;5.95;;
74471;SDS011;62920;53.572;10.050;2023-06-26T08:04:43;15.45;;;6.75;;
74471;SDS011;62920;53.572;10.050;2023-06-26T08:09:34;6.88;;;5.10;;
74471;SDS011;62920;53.572;10.050;2023-06-26T08:11:59;13.35;;;6.00;;
74471;SDS011;62920;53.572;10.050;2023-06-26T08:14:25;9.30;;;5.85;;
74471;SDS011;62920;53.572;10.050;2023-06-26T08:19:15;11.27;;;5.93;;
74471;SDS011;62920;53.572;10.050;2023-06-26T08:24:07;8.23;;;5.85;;
74471;SDS011;62920;53.572;10.050;2023-06-26T08:28:58;7.93;;;5.95;;
74471;SDS011;62920;53.572;10.050;2023-06-26T08:33:49;10.23;;;6.30;;
74471;SDS011;62920;53.572;10.050;2023-06-26T08:38:40;7.00;;;5.68;;
74471;SDS011;62920;53.572;10.050;2023-06-26T08:43:30;9.05;;;6.15;;
74471;SDS011;62920;53.572;10.050;2023-06-26T08:48:21;7.60;;;6.07;;
74471;SDS011;62920;53.572;10.050;2023-06-26T08:53:14;8.38;;;6.47;;
74471;SDS011;62920;53.572;10.050;2023-06-26T08:56:03;11.20;;;6.55;;
74471;SDS011;62920;53.572;10.050;2023-06-26T09:00:53;9.43;;;6.23;;
74471;SDS011;62920;53.572;10.050;2023-06-26T09:03:21;10.35;;;6.20;;
74471;SDS011;62920;53.572;10.050;2023-06-26T09:08:11;9.30;;;6.55;;
74471;SDS011;62920;53.572;10.050;2023-06-26T09:10:38;9.32;;;6.05;;
74471;SDS011;62920;53.572;10.050;2023-06-26T09:15:38;10.57;;;6.57;;
74471;SDS011;62920;53.572;10.050;2023-06-26T09:18:07;10.98;;;7.20;;
74471;SDS011;62920;53.572;10.050;2023-06-26T09:22:58;10.70;;;6.65;;
74471;SDS011;62920;53.572;10.050;2023-06-26T09:27:49;12.20;;;6.70;;
74471;SDS011;62920;53.572;10.050;2023-06-26T09:30:16;10.63;;;7.65;;
74471;SDS011;62920;53.572;10.050;2023-06-26T09:32:42;12.00;;;7.90;;
74471;SDS011;62920;53.572;10.050;2023-06-26T09:37:33;11.30;;;7.80;;
74471;SDS011;62920;53.572;10.050;2023-06-26T09:39:59;15.68;;;8.13;;
74471;SDS011;62920;53.572;10.050;2023-06-26T09:44:50;11.95;;;8.40;;
74471;SDS011;62920;53.572;10.050;2023-06-26T09:49:42;11.63;;;8.30;;
74471;SDS011;62920;53.572;10.050;2023-06-26T09:54:33;9.82;;;7.85;;
74471;SDS011;62920;53.572;10.050;2023-06-26T09:57:07;14.38;;;7.95;;
74471;SDS011;62920;53.572;10.050;2023-06-26T09:59:35;10.10;;;7.53;;
74471;SDS011;62920;53.572;10.050;2023-06-26T10:02:01;12.48;;;7.90;;
74471;SDS011;62920;53.572;10.050;2023-06-26T10:04:27;17.00;;;8.75;;
74471;SDS011;62920;53.572;10.050;2023-06-26T10:06:53;11.10;;;7.70;;
74471;SDS011;62920;53.572;10.050;2023-06-26T10:09:19;11.93;;;8.00;;
74471;SDS011;62920;53.572;10.050;2023-06-26T10:11:51;11.77;;;8.77;;
74471;SDS011;62920;53.572;10.050;2023-06-26T10:14:21;12.77;;;9.23;;
74471;SDS011;62920;53.572;10.050;2023-06-26T10:16:50;13.48;;;9.52;;
74471;SDS011;62920;53.572;10.050;2023-06-26T10:19:16;17.90;;;9.77;;
74471;SDS011;62920;53.572;10.050;2023-06-26T10:21:53;17.02;;;9.38;;
74471;SDS011;62920;53.572;10.050;2023-06-26T10:24:19;17.17;;;10.10;;
74471;SDS011;62920;53.572;10.050;2023-06-26T10:26:45;13.52;;;9.57;;
74471;SDS011;62920;53.572;10.050;2023-06-26T10:29:11;16.17;;;9.05;;
74471;SDS011;62920;53.572;10.050;2023-06-26T10:31:39;14.10;;;8.27;;
74471;SDS011;62920;53.572;10.050;2023-06-26T10:34:05;12.95;;;7.78;;
74471;SDS011;62920;53.572;10.050;2023-06-26T10:36:31;15.25;;;7.90;;
74471;SDS011;62920;53.572;10.050;2023-06-26T10:39:04;12.73;;;6.70;;
74471;SDS011;62920;53.572;10.050;2023-06-26T10:41:35;10.20;;;6.97;;
74471;SDS011;62920;53.572;10.050;2023-06-26T10:46:27;8.70;;;5.97;;
74471;SDS011;62920;53.572;10.050;2023-06-26T10:49:01;10.65;;;6.75;;
74471;SDS011;62920;53.572;10.050;2023-06-26T10:51:27;8.88;;;5.95;;
74471;SDS011;62920;53.572;10.050;2023-06-26T10:53:56;9.85;;;5.88;;
74471;SDS011;62920;53.572;10.050;2023-06-26T10:56:44;9.10;;;5.90;;
74471;SDS011;62920;53.572;10.050;2023-06-26T11:01:44;11.85;;;5.25;;
74471;SDS011;62920;53.572;10.050;2023-06-26T11:04:11;8.80;;;5.88;;
74471;SDS011;62920;53.572;10.050;2023-06-26T11:06:40;9.00;;;5.57;;
74471;SDS011;62920;53.572;10.050;2023-06-26T11:14:24;11.02;;;5.82;;
74471;SDS011;62920;53.572;10.050;2023-06-26T11:16:50;12.45;;;6.85;;
74471;SDS011;62920;53.572;10.050;2023-06-26T11:19:19;10.13;;;6.07;;
74471;SDS011;62920;53.572;10.050;2023-06-26T11:21:45;10.38;;;6.05;;
74471;SDS011;62920;53.572;10.050;2023-06-26T11:24:11;13.93;;;5.63;;
74471;SDS011;62920;53.572;10.050;2023-06-26T11:26:38;13.23;;;5.82;;
74471;SDS011;62920;53.572;10.050;2023-06-26T11:31:29;11.57;;;4.90;;
74471;SDS011;62920;53.572;10.050;2023-06-26T11:34:00;8.90;;;4.95;;
74471;SDS011;62920;53.572;10.050;2023-06-26T11:36:28;11.13;;;4.82;;
74471;SDS011;62920;53.572;10.050;2023-06-26T11:38:58;12.23;;;4.90;;
74471;SDS011;62920;53.572;10.050;2023-06-26T11:41:25;12.82;;;4.78;;
74471;SDS011;62920;53.572;10.050;2023-06-26T11:43:55;10.18;;;4.10;;
74471;SDS011;62920;53.572;10.050;2023-06-26T11:46:21;7.55;;;3.15;;
74471;SDS011;62920;53.572;10.050;2023-06-26T11:48:48;8.20;;;3.75;;
74471;SDS011;62920;53.572;10.050;2023-06-26T11:51:14;12.20;;;4.25;;
74471;SDS011;62920;53.572;10.050;2023-06-26T11:53:43;7.70;;;3.50;;
74471;SDS011;62920;53.572;10.050;2023-06-26T11:56:10;11.00;;;3.22;;
74471;SDS011;62920;53.572;10.050;2023-06-26T11:58:54;12.38;;;3.50;;
74471;SDS011;62920;53.572;10.050;2023-06-26T12:01:20;7.43;;;2.88;;
74471;SDS011;62920;53.572;10.050;2023-06-26T12:03:47;9.05;;;3.22;;
74471;SDS011;62920;53.572;10.050;2023-06-26T12:06:13;6.80;;;2.85;;
74471;SDS011;62920;53.572;10.050;2023-06-26T12:08:39;7.68;;;2.65;;
74471;SDS011;62920;53.572;10.050;2023-06-26T12:11:04;7.63;;;2.17;;
74471;SDS011;62920;53.572;10.050;2023-06-26T12:13:31;8.50;;;2.45;;
74471;SDS011;62920;53.572;10.050;2023-06-26T12:15:57;7.43;;;2.03;;
74471;SDS011;62920;53.572;10.050;2023-06-26T12:18:22;11.63;;;2.60;;
74471;SDS011;62920;53.572;10.050;2023-06-26T12:20:50;9.77;;;2.70;;
74471;SDS011;62920;53.572;10.050;2023-06-26T12:23:16;10.20;;;2.20;;
74471;SDS011;62920;53.572;10.050;2023-06-26T12:25:42;9.20;;;2.33;;
74471;SDS011;62920;53.572;10.050;2023-06-26T12:28:15;8.63;;;2.05;;
74471;SDS011;62920;53.572;10.050;2023-06-26T12:30:47;12.45;;;2.33;;
74471;SDS011;62920;53.572;10.050;2023-06-26T12:33:13;8.98;;;2.45;;
74471;SDS011;62920;53.572;10.050;2023-06-26T12:35:39;7.78;;;2.00;;
74471;SDS011;62920;53.572;10.050;2023-06-26T12:38:07;7.07;;;2.05;;
74471;SDS011;62920;53.572;10.050;2023-06-26T12:40:34;6.80;;;2.55;;
74471;SDS011;62920;53.572;10.050;2023-06-26T12:43:00;9.88;;;2.35;;
74471;SDS011;62920;53.572;10.050;2023-06-26T12:45:27;9.38;;;2.50;;
74471;SDS011;62920;53.572;10.050;2023-06-26T12:48:12;8.73;;;2.25;;
74471;SDS011;62920;53.572;10.050;2023-06-26T12:50:43;7.30;;;1.98;;
74471;SDS011;62920;53.572;10.050;2023-06-26T12:53:09;8.60;;;2.17;;
74471;SDS011;62920;53.572;10.050;2023-06-26T12:55:35;7.57;;;2.22;;
74471;SDS011;62920;53.572;10.050;2023-06-26T12:58:01;6.78;;;2.17;;
74471;SDS011;62920;53.572;10.050;2023-06-26T13:00:26;8.65;;;2.10;;
74471;SDS011;62920;53.572;10.050;2023-06-26T13:02:51;6.03;;;1.83;;
74471;SDS011;62920;53.572;10.050;2023-06-26T13:05:17;6.82;;;1.80;;
74471;SDS011;62920;53.572;10.050;2023-06-26T13:07:42;7.40;;;1.92;;
74471;SDS011;62920;53.572;10.050;2023-06-26T13:10:08;8.55;;;2.10;;
74471;SDS011;62920;53.572;10.050;2023-06-26T13:12:33;6.13;;;1.60;;
74471;SDS011;62920;53.572;10.050;2023-06-26T13:14:59;5.78;;;1.65;;
74471;SDS011;62920;53.572;10.050;2023-06-26T13:17:24;7.57;;;1.80;;
74471;SDS011;62920;53.572;10.050;2023-06-26T13:19:50;5.32;;;1.60;;
74471;SDS011;62920;53.572;10.050;2023-06-26T13:22:15;5.57;;;1.90;;
74471;SDS011;62920;53.572;10.050;2023-06-26T13:24:40;7.43;;;1.73;;
74471;SDS011;62920;53.572;10.050;2023-06-26T13:27:06;5.55;;;1.90;;
74471;SDS011;62920;53.572;10.050;2023-06-26T13:29:31;8.48;;;2.05;;
74471;SDS011;62920;53.572;10.050;2023-06-26T13:31:57;4.70;;;1.88;;
74471;SDS011;62920;53.572;10.050;2023-06-26T13:34:23;7.30;;;1.50;;
74471;SDS011;62920;53.572;10.050;2023-06-26T13:36:49;4.15;;;1.60;;
74471;SDS011;62920;53.572;10.050;2023-06-26T13:39:15;5.85;;;1.80;;
74471;SDS011;62920;53.572;10.050;2023-06-26T13:41:40;9.20;;;2.00;;
74471;SDS011;62920;53.572;10.050;2023-06-26T13:44:06;4.85;;;1.67;;
74471;SDS011;62920;53.572;10.050;2023-06-26T13:46:31;3.63;;;1.20;;
74471;SDS011;62920;53.572;10.050;2023-06-26T13:48:56;6.25;;;1.55;;
74471;SDS011;62920;53.572;10.050;2023-06-26T13:51:22;5.97;;;1.92;;
74471;SDS011;62920;53.572;10.050;2023-06-26T13:53:47;6.95;;;2.00;;
74471;SDS011;62920;53.572;10.050;2023-06-26T13:56:12;8.48;;;1.83;;
74471;SDS011;62920;53.572;10.050;2023-06-26T13:58:38;5.88;;;1.98;;
74471;SDS011;62920;53.572;10.050;2023-06-26T14:01:04;8.23;;;1.70;;
74471;SDS011;62920;53.572;10.050;2023-06-26T14:03:30;3.85;;;1.45;;
74471;SDS011;62920;53.572;10.050;2023-06-26T14:05:55;4.63;;;1.40;;
74471;SDS011;62920;53.572;10.050;2023-06-26T14:08:20;5.40;;;1.50;;
74471;SDS011;62920;53.572;10.050;2023-06-26T14:10:46;7.22;;;1.25;;
74471;SDS011;62920;53.572;10.050;2023-06-26T14:13:12;8.82;;;1.80;;
74471;SDS011;62920;53.572;10.050;2023-06-26T14:15:40;5.65;;;1.40;;
74471;SDS011;62920;53.572;10.050;2023-06-26T14:18:06;5.68;;;1.60;;
74471;SDS011;62920;53.572;10.050;2023-06-26T14:20:31;5.88;;;1.55;;
74471;SDS011;62920;53.572;10.050;2023-06-26T14:22:57;6.00;;;1.30;;
74471;SDS011;62920;53.572;10.050;2023-06-26T14:25:23;7.43;;;1.50;;
74471;SDS011;62920;53.572;10.050;2023-06-26T14:27:49;6.03;;;1.33;;
74471;SDS011;62920;53.572;10.050;2023-06-26T14:30:14;5.20;;;1.85;;
74471;SDS011;62920;53.572;10.050;2023-06-26T14:32:40;4.53;;;1.20;;
74471;SDS011;62920;53.572;10.050;2023-06-26T14:35:05;7.65;;;1.67;;
74471;SDS011;62920;53.572;10.050;2023-06-26T14:37:31;4.78;;;1.60;;
74471;SDS011;62920;53.572;10.050;2023-06-26T14:39:57;4.57;;;1.52;;
74471;SDS011;62920;53.572;10.050;2023-06-26T14:42:23;7.05;;;1.50;;
74471;SDS011;62920;53.572;10.050;2023-06-26T14:44:49;5.28;;;1.52;;
74471;SDS011;62920;53.572;10.050;2023-06-26T14:47:18;11.60;;;2.05;;
74471;SDS011;62920;53.572;10.050;2023-06-26T14:49:44;5.38;;;1.48;;
74471;SDS011;62920;53.572;10.050;2023-06-26T14:52:09;3.40;;;1.20;;
74471;SDS011;62920;53.572;10.050;2023-06-26T14:54:35;4.78;;;1.60;;
74471;SDS011;62920;53.572;10.050;2023-06-26T14:57:04;5.32;;;1.20;;
74471;SDS011;62920;53.572;10.050;2023-06-26T14:59:30;4.55;;;1.08;;
74471;SDS011;62920;53.572;10.050;2023-06-26T15:01:55;4.28;;;1.13;;
74471;SDS011;62920;53.572;10.050;2023-06-26T15:04:20;5.68;;;1.38;;
74471;SDS011;62920;53.572;10.050;2023-06-26T15:06:46;9.30;;;1.30;;
74471;SDS011;62920;53.572;10.050;2023-06-26T15:09:11;6.35;;;1.65;;
74471;SDS011;62920;53.572;10.050;2023-06-26T15:11:36;5.38;;;1.70;;
74471;SDS011;62920;53.572;10.050;2023-06-26T15:14:02;6.07;;;1.30;;
74471;SDS011;62920;53.572;10.050;2023-06-26T15:16:27;4.35;;;1.92;;
74471;SDS011;62920;53.572;10.050;2023-06-26T15:18:53;4.53;;;1.35;;
74471;SDS011;62920;53.572;10.050;2023-06-26T15:21:18;4.07;;;1.30;;
74471;SDS011;62920;53.572;10.050;2023-06-26T15:23:44;6.00;;;1.48;;
74471;SDS011;62920;53.572;10.050;2023-06-26T15:26:10;4.72;;;2.03;;
74471;SDS011;62920;53.572;10.050;2023-06-26T15:28:36;4.93;;;1.63;;
74471;SDS011;62920;53.572;10.050;2023-06-26T15:31:01;5.25;;;1.40;;
74471;SDS011;62920;53.572;10.050;2023-06-26T15:33:26;5.05;;;1.33;;
74471;SDS011;62920;53.572;10.050;2023-06-26T15:35:52;5.60;;;1.40;;
74471;SDS011;62920;53.572;10.050;2023-06-26T15:38:17;3.60;;;1.27;;
74471;SDS011;62920;53.572;10.050;2023-06-26T15:40:42;4.18;;;1.13;;
74471;SDS011;62920;53.572;10.050;2023-06-26T15:43:08;7.82;;;1.42;;
74471;SDS011;62920;53.572;10.050;2023-06-26T15:45:33;5.32;;;1.35;;
74471;SDS011;62920;53.572;10.050;2023-06-26T15:47:59;5.18;;;1.52;;
74471;SDS011;62920;53.572;10.050;2023-06-26T15:50:24;5.47;;;1.73;;
74471;SDS011;62920;53.572;10.050;2023-06-26T15:52:49;3.78;;;1.00;;
74471;SDS011;62920;53.572;10.050;2023-06-26T15:55:15;5.03;;;1.52;;
74471;SDS011;62920;53.572;10.050;2023-06-26T15:57:40;3.78;;;1.20;;
74471;SDS011;62920;53.572;10.050;2023-06-26T16:00:06;4.25;;;1.40;;
74471;SDS011;62920;53.572;10.050;2023-06-26T16:02:33;3.13;;;1.20;;
74471;SDS011;62920;53.572;10.050;2023-06-26T16:04:59;7.10;;;1.13;;